Time;durP1;ratioP1;P1;durP2;ratioP2;P2;SDS_P1;SDS_P2;PMS_P1;PMS_P2;Temp;Humidity;BMP_temperature;BMP_pressure;BME280_temperature;BME280_humidity;BME280_pressure;Samples;Min_cycle;Max_cycle;Signal;HPM_P1;HPM_P2
2023/05/18 00:02:07;;;;;;;3.13;0.93;;;5.90;83.70;;;;;;5079414;28;20024;-51
2023/05/18 00:04:33;;;;;;;2.97;1.15;;;5.90;83.20;;;;;;5082613;28;20531;-54
2023/05/18 00:07:02;;;;;;;6.45;1.15;;;5.90;85.40;;;;;;5078517;28;20032;-52
2023/05/18 00:09:36;;;;;;;5.97;1.30;;;5.90;84.50;;;;;;5079521;28;20025;-50
2023/05/18 00:12:04;;;;;;;3.60;1.10;;;5.80;83.30;;;;;;5080922;28;20020;-52
2023/05/18 00:14:30;;;;;;;4.63;1.13;;;5.90;83.10;;;;;;5081112;28;20024;-51
2023/05/18 00:16:56;;;;;;;2.78;1.05;;;5.80;83.30;;;;;;5081059;28;21102;-50
2023/05/18 00:19:23;;;;;;;4.38;1.10;;;5.80;82.80;;;;;;5079873;28;20028;-50
2023/05/18 00:21:54;;;;;;;5.03;1.10;;;5.80;83.50;;;;;;5080135;28;20086;-51
2023/05/18 00:24:21;;;;;;;5.30;1.40;;;5.80;83.80;;;;;;5079628;28;20008;-50
2023/05/18 00:26:50;;;;;;;3.83;1.25;;;5.80;83.80;;;;;;5079844;28;20052;-48
2023/05/18 00:29:16;;;;;;;3.67;1.10;;;5.80;83.40;;;;;;5077630;28;20085;-52
2023/05/18 00:31:44;;;;;;;3.63;1.10;;;5.70;84.80;;;;;;5080545;28;20028;-51
2023/05/18 00:34:12;;;;;;;4.57;1.77;;;5.80;85.30;;;;;;5077479;28;20024;-53
2023/05/18 00:36:38;;;;;;;5.72;1.40;;;5.80;85.00;;;;;;5106932;28;20042;-50
2023/05/18 00:39:05;;;;;;;5.88;1.52;;;5.70;84.20;;;;;;5089893;28;20031;-50
2023/05/18 00:41:32;;;;;;;5.72;1.25;;;5.70;83.80;;;;;;5109646;28;20733;-47
2023/05/18 00:43:59;;;;;;;2.25;1.20;;;5.70;83.90;;;;;;5107984;28;20031;-49
2023/05/18 00:46:25;;;;;;;4.93;1.40;;;5.70;86.70;;;;;;5090193;28;20264;-53
2023/05/18 00:48:55;;;;;;;3.15;1.52;;;5.60;86.20;;;;;;5088535;28;20407;-50
2023/05/18 00:51:24;;;;;;;5.57;0.90;;;5.70;86.50;;;;;;5084973;28;20487;-51
2023/05/18 00:53:52;;;;;;;3.25;1.73;;;5.60;86.40;;;;;;5088347;28;20445;-53
2023/05/18 00:56:20;;;;;;;3.22;1.42;;;5.60;87.00;;;;;;5109873;28;20039;-52
2023/05/18 00:58:46;;;;;;;5.88;1.40;;;5.50;87.30;;;;;;5086123;28;20034;-50
2023/05/18 01:01:16;;;;;;;2.75;1.00;;;5.50;87.80;;;;;;5109357;28;20478;-54
2023/05/18 01:03:43;;;;;;;4.30;1.50;;;5.50;89.40;;;;;;5087655;28;20028;-54
2023/05/18 01:06:09;;;;;;;4.93;1.95;;;5.50;90.10;;;;;;5109425;28;20028;-51
2023/05/18 01:08:36;;;;;;;3.88;1.48;;;5.40;88.70;;;;;;5087047;28;20373;-50
2023/05/18 01:11:09;;;;;;;5.47;1.10;;;5.40;88.50;;;;;;5109121;28;20415;-52
2023/05/18 01:13:48;;;;;;;4.03;1.00;;;5.40;87.80;;;;;;5079537;28;20025;-55
2023/05/18 01:16:20;;;;;;;4.72;1.10;;;5.40;87.90;;;;;;5068214;28;20039;-52
2023/05/18 01:18:54;;;;;;;5.57;1.25;;;5.40;89.10;;;;;;5085732;28;20028;-51
2023/05/18 01:22:07;;;;;;;3.03;0.90;;;5.30;88.90;;;;;;5069240;28;20100;-54
2023/05/18 01:24:47;;;;;;;3.70;0.98;;;5.30;89.80;;;;;;5046540;28;20108;-52
2023/05/18 01:27:16;;;;;;;2.65;0.93;;;5.30;90.90;;;;;;5072604;28;20046;-49
2023/05/18 01:29:45;;;;;;;7.82;1.42;;;5.20;92.80;;;;;;5109762;28;20032;-55
2023/05/18 01:32:18;;;;;;;3.22;0.98;;;5.20;91.40;;;;;;5092404;28;20038;-53
2023/05/18 01:34:43;;;;;;;3.78;0.80;;;5.20;90.80;;;;;;5109764;28;20023;-50
2023/05/18 01:37:08;;;;;;;4.47;1.10;;;5.20;91.30;;;;;;5092660;28;20015;-52
2023/05/18 01:39:34;;;;;;;4.10;1.13;;;5.20;91.30;;;;;;5109762;28;20144;-51
2023/05/18 01:42:06;;;;;;;6.05;1.00;;;5.20;91.20;;;;;;5087918;28;20027;-53
2023/05/18 01:44:42;;;;;;;5.07;1.00;;;5.10;90.60;;;;;;5089601;28;20028;-48
2023/05/18 01:47:16;;;;;;;1.98;0.98;;;5.10;90.60;;;;;;5072004;28;20523;-50
2023/05/18 01:49:47;;;;;;;3.78;0.80;;;5.10;90.90;;;;;;5089631;28;20451;-49
2023/05/18 01:52:38;;;;;;;7.25;1.08;;;5.10;90.90;;;;;;5072657;28;20032;-53
2023/05/18 01:55:05;;;;;;;3.42;1.10;;;5.10;90.80;;;;;;5089229;28;20048;-49
2023/05/18 01:57:35;;;;;;;2.53;1.00;;;5.00;92.20;;;;;;5098897;28;20539;-51
2023/05/18 02:00:06;;;;;;;7.85;1.23;;;5.00;92.00;;;;;;5109195;28;20448;-51
2023/05/18 02:02:33;;;;;;;3.85;0.90;;;5.00;91.60;;;;;;5083028;28;20390;-51
2023/05/18 02:04:59;;;;;;;2.92;0.80;;;5.00;91.30;;;;;;5094639;28;20035;-50
2023/05/18 02:07:25;;;;;;;3.97;0.95;;;5.00;92.30;;;;;;5103559;28;20027;-51
2023/05/18 02:09:53;;;;;;;6.55;2.17;;;4.90;92.80;;;;;;5092834;28;20074;-53
2023/05/18 02:12:18;;;;;;;5.15;1.15;;;4.90;92.00;;;;;;5104828;28;20032;-50
2023/05/18 02:14:44;;;;;;;4.25;1.27;;;4.90;92.90;;;;;;5092881;28;20183;-50
2023/05/18 02:17:10;;;;;;;2.83;0.98;;;4.90;93.90;;;;;;5105645;28;20031;-48
2023/05/18 02:19:37;;;;;;;3.72;0.88;;;4.80;94.40;;;;;;5092557;28;20016;-51
2023/05/18 02:22:07;;;;;;;2.70;1.10;;;4.80;93.40;;;;;;5106571;28;20077;-53
2023/05/18 02:24:33;;;;;;;2.47;1.08;;;4.80;93.10;;;;;;5092699;28;20024;-51
2023/05/18 02:27:00;;;;;;;9.40;1.35;;;4.80;93.30;;;;;;5106458;28;20388;-53
2023/05/18 02:29:25;;;;;;;9.48;1.30;;;4.80;93.50;;;;;;5092192;28;20024;-49
2023/05/18 02:31:52;;;;;;;9.30;1.75;;;4.70;93.10;;;;;;5107680;28;20395;-52
2023/05/18 02:34:20;;;;;;;3.25;1.02;;;4.70;93.60;;;;;;5092099;28;20028;-51
2023/05/18 02:36:47;;;;;;;7.25;1.40;;;4.70;93.60;;;;;;5107151;28;20484;-51
2023/05/18 02:39:13;;;;;;;4.93;1.15;;;4.60;93.50;;;;;;5092094;28;20032;-54
2023/05/18 02:41:38;;;;;;;2.38;1.15;;;4.60;93.90;;;;;;5109699;28;20139;-54
2023/05/18 02:44:04;;;;;;;5.53;1.10;;;4.60;94.10;;;;;;5112798;28;20023;-52
2023/05/18 02:46:32;;;;;;;2.95;0.80;;;4.60;94.00;;;;;;5092219;28;20020;-52
2023/05/18 02:48:58;;;;;;;6.00;1.48;;;4.50;93.70;;;;;;5089941;28;20262;-51
2023/05/18 02:51:24;;;;;;;7.45;1.30;;;4.50;93.90;;;;;;5111583;28;20281;-54
2023/05/18 02:53:51;;;;;;;6.80;1.77;;;4.50;93.90;;;;;;5090316;28;20103;-53
2023/05/18 02:56:17;;;;;;;3.40;1.00;;;4.40;94.50;;;;;;5111652;28;20040;-53
2023/05/18 02:58:43;;;;;;;8.40;1.30;;;4.40;96.00;;;;;;5090421;28;20032;-54
2023/05/18 03:01:11;;;;;;;3.10;0.75;;;4.30;94.90;;;;;;5111419;28;20062;-51
2023/05/18 03:03:38;;;;;;;7.60;1.33;;;4.30;94.70;;;;;;5090017;28;20024;-47
2023/05/18 03:06:04;;;;;;;2.70;1.23;;;4.30;94.60;;;;;;5111011;28;20118;-53
2023/05/18 03:08:31;;;;;;;5.45;1.38;;;4.20;94.90;;;;;;5089958;28;20074;-50
2023/05/18 03:10:58;;;;;;;6.28;1.10;;;4.20;95.10;;;;;;5110014;28;20039;-50
2023/05/18 03:13:24;;;;;;;2.63;1.00;;;4.20;96.60;;;;;;5089837;28;20032;-50
2023/05/18 03:15:50;;;;;;;7.30;1.15;;;4.10;95.90;;;;;;5111358;28;20032;-52
2023/05/18 03:18:20;;;;;;;2.80;1.10;;;4.10;96.00;;;;;;5087742;28;20127;-54
2023/05/18 03:20:46;;;;;;;5.72;1.08;;;4.10;96.60;;;;;;5111574;28;20027;-51
2023/05/18 03:23:13;;;;;;;5.68;1.20;;;4.00;96.50;;;;;;5088625;28;20035;-53
2023/05/18 03:25:38;;;;;;;5.20;1.00;;;4.00;96.80;;;;;;5104592;28;20546;-51
2023/05/18 03:28:04;;;;;;;6.05;1.38;;;4.10;97.40;;;;;;5100307;28;20161;-50
2023/05/18 03:30:33;;;;;;;5.00;0.93;;;4.10;97.10;;;;;;5091552;28;20025;-52
2023/05/18 03:33:00;;;;;;;3.22;1.15;;;4.10;99.90;;;;;;5097243;28;20028;-52
2023/05/18 03:35:26;;;;;;;4.95;1.40;;;4.10;99.90;;;;;;5110559;28;20555;-51
2023/05/18 03:37:52;;;;;;;2.70;0.98;;;4.10;99.90;;;;;;5100156;28;20487;-53
2023/05/18 03:40:18;;;;;;;4.47;1.58;;;4.10;99.40;;;;;;5091337;28;20035;-50
2023/05/18 03:42:44;;;;;;;5.05;1.20;;;4.20;98.90;;;;;;5108628;28;20102;-52
2023/05/18 03:45:11;;;;;;;5.80;1.15;;;4.20;98.50;;;;;;5091007;28;20134;-53
2023/05/18 03:47:37;;;;;;;6.20;1.13;;;4.30;98.70;;;;;;5108478;28;20047;-50
2023/05/18 03:50:04;;;;;;;3.60;0.93;;;4.30;99.30;;;;;;5090968;28;20125;-50
2023/05/18 03:52:33;;;;;;;6.50;1.05;;;4.40;99.40;;;;;;5108367;28;20032;-50
2023/05/18 03:55:02;;;;;;;2.35;1.27;;;4.50;99.50;;;;;;5111040;28;20027;-51
2023/05/18 03:57:28;;;;;;;2.90;1.05;;;5.00;99.90;;;;;;5096246;28;20031;-54
2023/05/18 03:59:54;;;;;;;1.88;0.80;;;5.40;99.70;;;;;;5110974;28;20031;-52
2023/05/18 04:02:20;;;;;;;5.10;1.50;;;6.00;99.30;;;;;;5095155;28;20012;-49
2023/05/18 04:04:46;;;;;;;4.60;1.27;;;6.70;97.00;;;;;;5106829;28;20024;-51
2023/05/18 04:07:17;;;;;;;5.07;1.05;;;7.30;94.80;;;;;;5093375;28;20191;-52
2023/05/18 04:09:43;;;;;;;3.53;1.08;;;8.00;92.40;;;;;;5110472;28;20329;-56
2023/05/18 04:12:09;;;;;;;3.80;0.80;;;8.70;90.20;;;;;;5088797;28;20047;-51
2023/05/18 04:14:35;;;;;;;2.05;1.05;;;9.30;84.60;;;;;;5090097;28;20535;-51
2023/05/18 04:17:06;;;;;;;3.65;0.95;;;9.80;81.10;;;;;;5104136;28;20056;-51
2023/05/18 04:19:34;;;;;;;1.85;0.88;;;10.50;79.40;;;;;;5088774;28;20033;-56
2023/05/18 04:22:03;;;;;;;3.47;0.90;;;11.00;75.60;;;;;;5108235;28;20035;-48
2023/05/18 04:24:31;;;;;;;3.97;1.00;;;11.60;74.70;;;;;;5110264;28;20035;-52
2023/05/18 04:26:58;;;;;;;4.03;0.90;;;12.30;71.70;;;;;;5091425;28;20035;-52
2023/05/18 04:29:23;;;;;;;3.42;0.93;;;12.80;70.00;;;;;;5108047;28;20047;-49
2023/05/18 04:31:49;;;;;;;2.25;0.75;;;13.40;68.90;;;;;;5090346;28;20396;-51
2023/05/18 04:34:16;;;;;;;1.63;0.77;;;13.90;65.00;;;;;;5110494;28;20437;-53
2023/05/18 04:36:44;;;;;;;5.13;1.55;;;14.50;63.50;;;;;;5089184;28;20024;-53
2023/05/18 04:39:11;;;;;;;3.00;1.10;;;15.00;60.90;;;;;;5110454;28;20115;-51
2023/05/18 04:41:41;;;;;;;2.50;1.05;;;15.60;59.10;;;;;;5086678;28;20077;-52
2023/05/18 04:44:06;;;;;;;4.53;1.40;;;16.00;56.30;;;;;;5090315;28;20012;-54
2023/05/18 04:46:33;;;;;;;5.00;1.05;;;16.40;53.40;;;;;;5109639;28;20035;-52
2023/05/18 04:49:00;;;;;;;4.10;0.98;;;16.90;52.80;;;;;;5088282;28;20539;-51
2023/05/18 04:51:25;;;;;;;5.03;1.20;;;17.30;50.90;;;;;;5109362;28;20108;-48
2023/05/18 04:53:54;;;;;;;4.15;1.13;;;17.70;47.30;;;;;;5088717;28;20056;-52
2023/05/18 04:56:22;;;;;;;2.53;1.08;;;18.00;45.10;;;;;;5095847;28;20024;-50
2023/05/18 04:58:48;;;;;;;3.10;1.10;;;18.40;42.80;;;;;;5109716;28;20039;-51
2023/05/18 05:01:15;;;;;;;3.90;1.35;;;18.80;40.00;;;;;;5088819;28;20043;-49
2023/05/18 05:03:43;;;;;;;2.13;1.08;;;19.20;38.10;;;;;;5092497;28;20032;-50
2023/05/18 05:06:10;;;;;;;1.88;0.82;;;19.80;35.70;;;;;;5109504;28;20110;-51
2023/05/18 05:08:36;;;;;;;3.30;1.17;;;20.30;33.90;;;;;;5088230;28;20032;-48
2023/05/18 05:11:03;;;;;;;3.67;1.40;;;20.70;31.40;;;;;;5109072;28;20055;-47
2023/05/18 05:13:28;;;;;;;4.57;1.38;;;21.20;29.60;;;;;;5087083;28;20031;-47
2023/05/18 05:15:54;;;;;;;4.57;1.13;;;21.60;28.20;;;;;;5109283;28;20501;-50
2023/05/18 05:18:20;;;;;;;2.78;1.25;;;22.10;25.70;;;;;;5087367;28;20403;-48
2023/05/18 05:20:46;;;;;;;3.60;1.45;;;22.40;24.20;;;;;;5088941;28;20020;-49
2023/05/18 05:23:12;;;;;;;5.47;1.30;;;22.50;20.30;;;;;;5108638;28;20016;-52
2023/05/18 05:25:38;;;;;;;4.60;1.00;;;22.70;21.10;;;;;;5073016;28;20032;-50
2023/05/18 05:28:03;;;;;;;3.20;1.30;;;23.10;20.30;;;;;;5069155;28;20056;-52
2023/05/18 05:30:29;;;;;;;5.03;1.15;;;23.50;18.70;;;;;;5094179;28;20046;-49
2023/05/18 05:32:55;;;;;;;3.00;1.02;;;23.90;17.60;;;;;;5107621;28;20436;-50
2023/05/18 05:35:20;;;;;;;3.97;1.20;;;24.10;15.80;;;;;;5078056;28;20028;-48
2023/05/18 05:37:46;;;;;;;4.30;1.25;;;23.90;13.70;;;;;;5077910;28;20082;-60
2023/05/18 05:40:12;;;;;;;5.45;1.15;;;24.10;13.60;;;;;;5107895;28;20080;-68
2023/05/18 05:42:37;;;;;;;3.30;1.17;;;24.50;13.40;;;;;;5085531;28;20031;-69
2023/05/18 05:45:03;;;;;;;3.45;1.60;;;24.90;12.40;;;;;;5110377;28;20402;-68
2023/05/18 05:47:29;;;;;;;4.32;1.50;;;25.20;11.30;;;;;;5096268;28;20131;-69
2023/05/18 05:49:56;;;;;;;4.25;1.38;;;25.30;10.60;;;;;;5105367;28;20107;-69
2023/05/18 05:52:21;;;;;;;2.60;1.20;;;25.50;9.90;;;;;;5094822;28;20062;-69
2023/05/18 05:54:47;;;;;;;4.70;1.58;;;26.00;9.10;;;;;;5098763;28;20067;-71
2023/05/18 05:57:12;;;;;;;3.47;1.20;;;25.80;7.50;;;;;;5108845;28;20024;-68
2023/05/18 05:59:38;;;;;;;3.28;1.30;;;25.90;7.40;;;;;;5087147;28;20039;-69
2023/05/18 06:02:05;;;;;;;5.20;1.45;;;26.20;7.30;;;;;;5107414;28;20032;-70
2023/05/18 06:04:31;;;;;;;4.18;1.40;;;26.50;6.40;;;;;;5094530;28;20048;-70
2023/05/18 06:06:56;;;;;;;5.05;1.55;;;26.30;5.60;;;;;;5108762;28;20605;-72
2023/05/18 06:09:22;;;;;;;7.10;1.25;;;26.60;5.40;;;;;;5110393;28;20502;-70
2023/05/18 06:11:47;;;;;;;4.75;1.48;;;27.20;4.80;;;;;;5090236;28;20020;-70
2023/05/18 06:14:13;;;;;;;3.17;1.10;;;27.80;4.70;;;;;;5106104;28;20547;-69
2023/05/18 06:16:38;;;;;;;4.85;1.45;;;28.40;3.80;;;;;;5092965;28;20104;-67
2023/05/18 06:19:04;;;;;;;1.83;1.05;;;28.80;3.20;;;;;;5098986;28;20026;-70
2023/05/18 06:21:30;;;;;;;2.88;1.40;;;29.10;2.90;;;;;;5094403;28;20028;-70
2023/05/18 06:23:56;;;;;;;3.28;1.17;;;29.40;2.00;;;;;;5088282;28;20024;-69
2023/05/18 06:26:22;;;;;;;3.15;1.02;;;29.60;1.70;;;;;;5087577;28;20526;-70
2023/05/18 06:28:48;;;;;;;4.72;1.40;;;29.60;1.30;;;;;;5076671;28;20037;-71
2023/05/18 06:31:17;;;;;;;3.90;1.52;;;29.40;1.00;;;;;;5095721;28;20060;-70
2023/05/18 06:33:43;;;;;;;3.03;1.30;;;29.50;1.00;;;;;;5090249;28;20020;-70
2023/05/18 06:36:08;;;;;;;3.38;1.13;;;29.40;1.00;;;;;;5109775;28;20453;-70
2023/05/18 06:38:36;;;;;;;4.20;1.60;;;29.10;1.00;;;;;;5072153;28;20064;-69
2023/05/18 06:41:01;;;;;;;3.38;1.40;;;29.60;1.00;;;;;;5101326;28;20650;-70
2023/05/18 06:43:27;;;;;;;3.00;1.08;;;28.70;1.00;;;;;;5092235;28;20144;-70
2023/05/18 06:45:54;;;;;;;4.45;1.85;;;28.90;1.00;;;;;;5109272;28;20032;-71
2023/05/18 06:48:26;;;;;;;3.80;1.50;;;28.90;1.00;;;;;;5097210;28;20039;-70
2023/05/18 06:50:52;;;;;;;4.45;1.38;;;29.20;1.00;;;;;;5083845;28;20052;-70
2023/05/18 06:53:18;;;;;;;2.50;1.23;;;29.40;1.00;;;;;;5087042;28;20430;-71
2023/05/18 06:55:43;;;;;;;3.50;1.50;;;29.70;1.00;;;;;;5106766;28;20032;-71
2023/05/18 06:58:09;;;;;;;3.65;1.20;;;30.40;1.00;;;;;;5076467;28;20040;-69
2023/05/18 07:00:35;;;;;;;2.80;1.20;;;30.80;1.00;;;;;;5110329;28;20127;-69
2023/05/18 07:03:00;;;;;;;3.78;1.25;;;30.90;1.00;;;;;;5089157;28;20032;-69
2023/05/18 07:05:26;;;;;;;4.40;1.85;;;31.10;1.00;;;;;;5100398;28;20106;-69
2023/05/18 07:07:52;;;;;;;6.93;1.60;;;30.00;1.00;;;;;;5107573;28;20028;-69
2023/05/18 07:10:18;;;;;;;6.20;1.83;;;29.60;1.00;;;;;;5099795;28;20487;-71
2023/05/18 07:12:43;;;;;;;6.43;1.65;;;29.10;1.00;;;;;;5091977;28;20024;-71
2023/05/18 07:15:10;;;;;;;9.20;1.73;;;28.40;1.00;;;;;;5109275;28;20087;-70
2023/05/18 07:17:36;;;;;;;5.28;1.40;;;29.10;1.00;;;;;;5085236;28;20034;-71
2023/05/18 07:20:04;;;;;;;4.25;1.27;;;29.80;1.00;;;;;;5099361;28;20027;-69
2023/05/18 07:22:30;;;;;;;5.35;1.60;;;29.20;1.00;;;;;;5110408;28;20039;-70
2023/05/18 07:24:57;;;;;;;5.00;1.63;;;28.70;1.00;;;;;;5096291;28;20032;-70
2023/05/18 07:27:23;;;;;;;5.47;1.70;;;28.80;1.00;;;;;;5111630;28;20016;-71
2023/05/18 07:29:48;;;;;;;3.20;1.50;;;28.70;1.00;;;;;;5095422;28;20586;-70
2023/05/18 07:32:14;;;;;;;5.45;1.35;;;29.40;1.00;;;;;;5111424;28;20387;-69
2023/05/18 07:34:42;;;;;;;4.25;1.42;;;28.90;1.00;;;;;;5094109;28;20023;-70
2023/05/18 07:37:08;;;;;;;5.57;1.83;;;26.10;1.00;;;;;;5111346;28;20024;-72
2023/05/18 07:39:33;;;;;;;3.78;1.35;;;23.80;1.00;;;;;;5093457;28;20020;-70
2023/05/18 07:41:59;;;;;;;3.25;1.25;;;23.50;1.00;;;;;;5111151;28;20038;-69
2023/05/18 07:44:26;;;;;;;3.22;1.20;;;24.20;1.00;;;;;;5092176;28;21030;-70
2023/05/18 07:46:52;;;;;;;7.13;1.80;;;24.80;1.00;;;;;;5110936;28;20395;-70
2023/05/18 07:49:18;;;;;;;4.40;1.50;;;24.00;1.00;;;;;;5090824;28;20038;-71
2023/05/18 07:51:43;;;;;;;3.05;1.13;;;22.30;1.00;;;;;;5109920;28;20368;-69
2023/05/18 07:54:09;;;;;;;3.72;1.30;;;21.30;1.00;;;;;;5087216;28;20266;-67
2023/05/18 07:56:35;;;;;;;3.22;1.40;;;20.80;1.40;;;;;;5079974;28;20035;-69
2023/05/18 07:59:01;;;;;;;4.63;1.20;;;20.50;1.30;;;;;;5080090;28;20029;-68
2023/05/18 08:01:29;;;;;;;4.97;1.35;;;20.30;1.10;;;;;;5069358;28;20028;-70
2023/05/18 08:03:57;;;;;;;4.22;1.02;;;20.00;1.70;;;;;;5074395;28;20020;-70
2023/05/18 08:06:22;;;;;;;5.25;1.45;;;19.70;2.20;;;;;;5075151;28;20035;-70
2023/05/18 08:08:48;;;;;;;2.17;1.05;;;19.30;2.90;;;;;;5079919;28;20028;-72
2023/05/18 08:11:14;;;;;;;4.85;1.15;;;19.00;3.40;;;;;;5092786;28;20749;-69
2023/05/18 08:13:39;;;;;;;7.85;1.50;;;18.40;3.90;;;;;;5073156;28;20024;-70
2023/05/18 08:16:05;;;;;;;2.88;1.30;;;18.20;4.30;;;;;;5079132;28;20506;-69
2023/05/18 08:18:31;;;;;;;5.25;1.20;;;18.00;4.70;;;;;;5088440;28;20130;-69
2023/05/18 08:20:59;;;;;;;3.05;1.08;;;17.80;4.80;;;;;;5094564;28;20294;-69
2023/05/18 08:23:24;;;;;;;4.18;1.33;;;17.90;4.60;;;;;;5088960;28;20473;-68
2023/05/18 08:25:50;;;;;;;4.60;1.48;;;18.10;5.60;;;;;;5097389;28;20460;-69
2023/05/18 08:28:15;;;;;;;3.85;0.98;;;18.00;4.80;;;;;;5088654;28;20108;-69
2023/05/18 08:30:41;;;;;;;5.03;1.40;;;18.10;4.90;;;;;;5108080;28;20451;-69
2023/05/18 08:33:08;;;;;;;3.83;1.17;;;17.80;6.10;;;;;;5090169;28;20082;-70
2023/05/18 08:35:33;;;;;;;5.72;1.52;;;17.70;6.00;;;;;;5109449;28;20028;-69
2023/05/18 08:37:59;;;;;;;6.78;1.35;;;17.60;6.70;;;;;;5108334;28;20042;-72
2023/05/18 08:40:35;;;;;;;4.40;1.30;;;17.40;6.60;;;;;;5090305;28;20035;-69
2023/05/18 08:43:32;;;;;;;3.90;1.10;;;17.60;7.20;;;;;;5097403;28;20027;-70
2023/05/18 08:46:07;;;;;;;5.72;1.13;;;17.80;6.70;;;;;;5069045;28;20043;-70
2023/05/18 08:48:33;;;;;;;3.27;0.90;;;18.10;5.80;;;;;;5091856;28;20085;-70
2023/05/18 08:51:03;;;;;;;3.58;0.90;;;18.20;5.60;;;;;;5110124;28;20119;-69
2023/05/18 08:53:32;;;;;;;4.05;1.23;;;18.40;5.40;;;;;;5088207;28;20506;-69
2023/05/18 08:55:58;;;;;;;4.00;0.90;;;18.20;5.80;;;;;;5110036;28;20032;-69
2023/05/18 08:58:36;;;;;;;3.70;1.45;;;17.80;6.20;;;;;;5088940;28;20035;-70
2023/05/18 09:01:03;;;;;;;2.92;1.40;;;17.50;6.90;;;;;;5110052;28;20103;-68
2023/05/18 09:03:30;;;;;;;4.60;1.40;;;17.30;7.20;;;;;;5088417;28;20061;-70
2023/05/18 09:05:58;;;;;;;2.75;1.42;;;17.70;7.70;;;;;;5103676;28;20031;-69
2023/05/18 09:08:24;;;;;;;4.43;1.48;;;18.20;7.70;;;;;;5101616;28;20038;-68
2023/05/18 09:10:51;;;;;;;4.50;1.70;;;18.60;7.00;;;;;;5090508;28;20172;-70
2023/05/18 09:13:21;;;;;;;4.30;1.60;;;18.20;6.90;;;;;;5093567;28;20039;-70
2023/05/18 09:15:47;;;;;;;3.58;1.30;;;18.00;7.70;;;;;;5071627;28;20032;-70
2023/05/18 09:18:13;;;;;;;3.45;1.20;;;18.20;7.10;;;;;;5096188;28;20028;-68
2023/05/18 09:20:39;;;;;;;5.55;1.40;;;18.40;6.50;;;;;;5113601;28;20134;-71
2023/05/18 09:23:05;;;;;;;6.15;1.42;;;18.50;6.20;;;;;;5092581;28;20035;-69
2023/05/18 09:25:33;;;;;;;9.07;1.83;;;18.10;6.40;;;;;;5108310;28;20040;-70
2023/05/18 09:27:59;;;;;;;4.85;1.40;;;17.70;6.50;;;;;;5095020;28;20032;-69
2023/05/18 09:30:25;;;;;;;4.30;0.80;;;17.80;6.50;;;;;;5113348;28;20038;-69
2023/05/18 09:32:51;;;;;;;4.13;1.10;;;18.10;6.10;;;;;;5102545;28;20058;-69
2023/05/18 09:35:18;;;;;;;3.50;1.00;;;18.20;5.80;;;;;;5092941;28;20081;-70
2023/05/18 09:37:43;;;;;;;3.05;1.25;;;17.90;5.70;;;;;;5111631;28;20377;-70
2023/05/18 09:40:09;;;;;;;6.65;1.75;;;17.60;6.20;;;;;;5093747;28;20154;-65
2023/05/18 09:42:39;;;;;;;7.10;1.58;;;17.60;6.50;;;;;;5111051;28;20020;-70
2023/05/18 09:45:27;;;;;;;4.57;1.40;;;17.70;6.60;;;;;;5093727;28;20028;-69
2023/05/18 09:47:53;;;;;;;3.78;1.05;;;17.60;7.10;;;;;;5092804;28;20019;-70
2023/05/18 09:50:20;;;;;;;3.03;1.02;;;17.70;6.80;;;;;;5093622;28;20660;-70
2023/05/18 09:52:48;;;;;;;2.80;0.95;;;18.10;6.20;;;;;;5111078;28;20027;-70
2023/05/18 09:55:18;;;;;;;4.40;1.20;;;18.50;5.90;;;;;;5093193;28;20403;-70
2023/05/18 09:57:46;;;;;;;9.32;1.70;;;18.30;5.70;;;;;;5110714;28;20057;-70
2023/05/18 10:00:14;;;;;;;4.90;1.40;;;17.80;6.30;;;;;;5091801;28;20057;-70
2023/05/18 10:02:42;;;;;;;4.70;1.30;;;17.60;7.20;;;;;;5111126;28;20023;-71
2023/05/18 10:05:30;;;;;;;3.10;0.75;;;17.70;6.70;;;;;;5099136;28;20387;-72
2023/05/18 10:07:57;;;;;;;5.60;1.38;;;17.90;6.40;;;;;;5111218;28;20220;-70
2023/05/18 10:10:28;;;;;;;5.75;2.10;;;18.10;6.10;;;;;;5093102;27;20032;-71
2023/05/18 10:12:54;;;;;;;6.20;1.40;;;17.90;7.40;;;;;;5092247;28;20040;-70
2023/05/18 10:15:22;;;;;;;5.93;1.65;;;17.30;7.30;;;;;;5091484;28;20023;-70
2023/05/18 10:17:49;;;;;;;6.47;1.80;;;17.00;8.00;;;;;;5110442;28;20058;-71
2023/05/18 10:20:22;;;;;;;6.38;2.45;;;16.60;9.00;;;;;;5092828;28;20031;-71
2023/05/18 10:22:49;;;;;;;6.55;1.83;;;16.40;9.00;;;;;;5090866;28;20036;-72
2023/05/18 10:25:24;;;;;;;4.57;1.40;;;16.20;9.40;;;;;;5109367;28;20132;-70
2023/05/18 10:27:54;;;;;;;4.83;1.60;;;16.10;10.40;;;;;;5098508;28;20031;-72
2023/05/18 10:30:21;;;;;;;6.53;1.50;;;16.30;9.50;;;;;;5072251;28;20274;-71
2023/05/18 10:32:50;;;;;;;6.00;1.40;;;16.50;9.10;;;;;;5109761;28;20426;-70
2023/05/18 10:35:16;;;;;;;7.05;2.03;;;16.60;8.40;;;;;;5094256;28;20024;-71
2023/05/18 10:37:47;;;;;;;8.45;1.73;;;16.90;8.40;;;;;;5109477;28;20076;-70
2023/05/18 10:40:14;;;;;;;5.43;1.05;;;17.20;7.20;;;;;;5070780;28;20446;-68
2023/05/18 10:42:41;;;;;;;2.67;1.20;;;17.60;6.80;;;;;;5109284;28;20103;-70
2023/05/18 10:45:09;;;;;;;8.20;1.75;;;17.60;6.90;;;;;;5092739;27;20036;-71
2023/05/18 10:47:41;;;;;;;7.05;2.10;;;17.10;8.10;;;;;;5110095;28;20110;-70
2023/05/18 10:50:08;;;;;;;7.05;1.38;;;16.40;8.40;;;;;;5072219;28;20029;-70
2023/05/18 10:52:36;;;;;;;4.18;1.70;;;16.10;9.90;;;;;;5108792;28;20521;-70
2023/05/18 10:55:07;;;;;;;36.83;20.33;;;16.00;9.10;;;;;;5071862;28;20365;-70
2023/05/18 10:57:40;;;;;;;22.33;13.63;;;16.00;9.30;;;;;;5109819;28;20029;-70
2023/05/18 11:00:09;;;;;;;47.53;28.50;;;16.00;8.70;;;;;;5070471;28;20032;-70
2023/05/18 11:02:41;;;;;;;100.65;72.35;;;16.00;9.00;;;;;;5109520;28;20023;-70
2023/05/18 11:05:10;;;;;;;102.03;70.47;;;16.10;8.50;;;;;;5105406;28;20016;-71
2023/05/18 11:07:37;;;;;;;112.25;81.22;;;16.50;8.30;;;;;;5098154;28;20020;-70
2023/05/18 11:10:09;;;;;;;57.60;41.83;;;16.90;7.70;;;;;;5091581;28;20024;-69
2023/05/18 11:12:39;;;;;;;28.33;19.58;;;17.30;6.90;;;;;;5086243;28;20034;-70
2023/05/18 11:15:06;;;;;;;58.83;35.50;;;17.30;6.80;;;;;;5071339;28;20391;-71
2023/05/18 11:17:31;;;;;;;40.95;29.27;;;17.30;7.10;;;;;;5108689;28;20088;-71
2023/05/18 11:20:06;;;;;;;20.38;13.82;;;17.50;7.00;;;;;;5092074;28;20044;-71
2023/05/18 11:22:58;;;;;;;15.15;7.63;;;17.70;7.00;;;;;;5107895;28;20031;-70
2023/05/18 11:25:27;;;;;;;9.23;2.80;;;17.60;7.00;;;;;;5089915;28;20069;-70
2023/05/18 11:27:55;;;;;;;7.80;2.47;;;17.10;7.60;;;;;;5098926;28;20115;-70
2023/05/18 11:30:43;;;;;;;3.67;1.80;;;16.80;8.20;;;;;;5091261;28;20296;-71
2023/05/18 11:33:16;;;;;;;2.85;1.13;;;16.40;8.00;;;;;;5095403;28;20035;-72
2023/05/18 11:35:55;;;;;;;4.20;1.73;;;16.50;8.00;;;;;;5091087;28;20027;-70
2023/05/18 11:38:21;;;;;;;5.55;1.63;;;16.50;7.90;;;;;;5093941;28;20077;-70
2023/05/18 11:40:48;;;;;;;4.97;1.70;;;16.30;8.00;;;;;;5110882;28;20162;-50
2023/05/18 11:43:24;;;;;;;4.28;1.40;;;16.30;9.20;;;;;;5088149;28;20107;-59
2023/05/18 11:45:54;;;;;;;3.20;1.40;;;16.20;8.10;;;;;;5073318;28;20077;-54
2023/05/18 11:48:30;;;;;;;6.10;1.63;;;16.30;8.40;;;;;;5086071;28;20081;-56
2023/05/18 11:50:56;;;;;;;3.03;1.17;;;16.40;8.20;;;;;;5081150;28;20032;-58
2023/05/18 11:53:26;;;;;;;5.32;1.30;;;16.50;8.40;;;;;;5089589;28;20415;-58
2023/05/18 11:55:58;;;;;;;9.85;1.80;;;16.70;8.50;;;;;;5092105;28;20036;-59
2023/05/18 11:58:24;;;;;;;4.22;1.77;;;16.50;9.30;;;;;;5092437;28;20097;-57
2023/05/18 12:00:50;;;;;;;6.80;2.03;;;16.20;9.30;;;;;;5092024;28;20505;-56
2023/05/18 12:03:19;;;;;;;4.35;1.85;;;16.00;9.50;;;;;;5084352;28;20029;-59
2023/05/18 12:05:48;;;;;;;7.03;1.48;;;16.00;9.40;;;;;;5085329;28;20028;-57
2023/05/18 12:08:20;;;;;;;5.57;1.60;;;15.90;10.10;;;;;;5087355;28;20024;-57
2023/05/18 12:10:48;;;;;;;6.68;1.65;;;16.00;9.80;;;;;;5101030;28;20020;-56
2023/05/18 12:13:16;;;;;;;6.25;1.75;;;16.30;9.30;;;;;;5076792;28;20519;-59
2023/05/18 12:15:43;;;;;;;6.68;1.60;;;16.20;9.30;;;;;;5102423;28;20034;-59
2023/05/18 12:18:10;;;;;;;2.88;1.30;;;16.40;8.90;;;;;;5081439;28;20017;-59
2023/05/18 12:20:40;;;;;;;4.38;1.55;;;16.50;8.70;;;;;;5088419;28;20039;-58
2023/05/18 12:23:05;;;;;;;4.60;1.63;;;16.60;8.80;;;;;;5083803;28;20133;-57
2023/05/18 12:25:31;;;;;;;4.13;1.30;;;16.60;9.00;;;;;;5092861;28;20473;-58
2023/05/18 12:27:56;;;;;;;6.57;1.67;;;16.50;9.40;;;;;;5083896;28;20024;-55
2023/05/18 12:30:24;;;;;;;3.90;1.20;;;16.40;8.10;;;;;;5093030;28;20031;-58
2023/05/18 12:32:55;;;;;;;4.15;1.60;;;16.30;8.70;;;;;;5086714;28;20642;-57
2023/05/18 12:35:22;;;;;;;4.82;1.58;;;16.40;8.40;;;;;;5089652;28;20456;-59
2023/05/18 12:37:49;;;;;;;3.55;1.40;;;16.40;8.80;;;;;;5091937;28;20024;-59
2023/05/18 12:40:16;;;;;;;5.43;1.80;;;16.40;9.70;;;;;;5086263;28;20039;-59
2023/05/18 12:42:58;;;;;;;5.53;1.45;;;16.10;8.00;;;;;;5096485;28;20016;-59
2023/05/18 12:45:33;;;;;;;6.40;1.92;;;15.90;8.90;;;;;;5078147;28;20426;-55
2023/05/18 12:48:06;;;;;;;8.68;1.77;;;15.90;8.50;;;;;;5076664;28;20032;-61
2023/05/18 12:50:33;;;;;;;2.20;1.30;;;15.90;8.50;;;;;;5093637;28;20513;-57
2023/05/18 12:53:03;;;;;;;3.80;1.40;;;15.90;9.40;;;;;;5091864;28;20024;-58
2023/05/18 12:55:30;;;;;;;6.55;1.75;;;16.00;9.70;;;;;;5104858;28;20446;-58
2023/05/18 12:58:19;;;;;;;4.93;1.70;;;15.90;8.60;;;;;;5090143;28;20031;-58
2023/05/18 13:00:47;;;;;;;3.95;1.50;;;15.90;8.80;;;;;;5076215;28;20040;-57